Data for 04/02/2007

Time Sea-Level Adjusted Pressure Absolute Pressure Temperature Relative Humidity Dew Point   
(mb) (inHg) (mb) (inHg) (C) (F) (%) (C) (F)
00:05 1010 29.83 839 24.78 1.4 34.5 95 0.7 33.3
00:10 1010 29.83 839 24.78 1.4 34.4 95 0.6 33
00:15 1010 29.83 839 24.78 1.3 34.4 94 0.5 32.9
00:20 1010 29.83 839 24.78 1.3 34.4 93 0.4 32.7
00:25 1010 29.83 839 24.78 1.4 34.5 93 0.3 32.6
00:30 1010 29.83 839 24.78 1.5 34.6 92 0.4 32.7
00:35 1010 29.83 839 24.78 1.5 34.7 92 0.3 32.6
00:40 1010 29.83 839 24.78 1.5 34.7 92 0.3 32.6
00:45 1010 29.83 839 24.78 1.6 34.8 91 0.3 32.5
00:50 1010 29.83 839 24.78 1.6 34.9 90 0.2 32.4
00:55 1010 29.83 839 24.78 1.7 35.1 89 0.2 32.3
01:00 1010 29.83 839 24.78 1.8 35.2 90 0.2 32.4
01:05 1010 29.83 839 24.78 1.8 35.2 89 0.2 32.3
01:10 1010 29.83 839 24.78 1.8 35.3 89 0.2 32.4
01:15 1010 29.83 839 24.78 1.8 35.2 90 0.3 32.5
01:20 1010 29.83 839 24.78 1.8 35.2 91 0.5 32.9
01:25 1010 29.83 839 24.78 1.8 35.2 89 0.2 32.4
01:30 1010 29.83 839 24.78 2 35.6 90 0.5 33
01:35 1010 29.83 839 24.78 1.9 35.4 93 0.9 33.7
01:40 1010 29.83 839 24.78 1.6 34.8 95 0.9 33.6
01:45 1010 29.83 839 24.78 1.5 34.7 96 0.9 33.6
01:50 1010 29.83 839 24.78 1.5 34.6 95 0.8 33.4
01:55 1010 29.83 839 24.78 1.3 34.4 95 0.7 33.2
02:00 1010 29.83 839 24.78 1.2 34.2 96 0.6 33.1
02:05 1010 29.83 839 24.78 1 33.9 97 0.6 33.1
02:10 1010 29.83 839 24.78 1.1 33.9 97 0.7 33.2
02:15 1010 29.83 839 24.78 1.2 34.2 97 0.8 33.5
02:20 1010 29.83 839 24.78 1.4 34.5 97 0.9 33.7
02:25 1010 29.83 839 24.78 1.5 34.7 97 1 33.8
02:30 1010 29.83 839 24.78 1.4 34.6 96 0.9 33.6
02:35 1010 29.83 839 24.78 1.3 34.4 96 0.7 33.3
02:40 1010 29.83 839 24.78 1.1 34 96 0.5 33
02:45 1010 29.83 839 24.78 0.9 33.6 96 0.3 32.6
02:50 1010 29.83 839 24.78 0.8 33.4 96 0.2 32.4
02:55 1010 29.83 839 24.78 0.6 33 96 0 32.1
03:00 1010 29.83 839 24.78 0.5 32.9 97 -0 32
03:05 1010 29.83 839 24.78 0.4 32.8 97 -0 31.9
03:10 1010 29.83 839 24.78 0.4 32.7 97 -0.1 31.9
03:15 1010 29.83 839 24.78 0.4 32.7 97 -0 31.9
03:20 1010 29.83 839 24.78 0.3 32.6 97 -0.1 31.8
03:25 1010 29.83 839 24.78 0.4 32.7 97 -0 32
03:30 1010 29.83 839 24.78 0.4 32.7 97 0 32
03:35 1010 29.83 839 24.78 0.4 32.7 97 -0 32
03:40 1010 29.83 839 24.78 0.4 32.8 97 0 32
03:45 1010 29.83 839 24.78 0.4 32.8 97 -0 32
03:50 1010 29.83 839 24.78 0.4 32.6 97 -0 31.9
03:55 1010 29.83 839 24.78 0.4 32.7 97 -0 32
04:00 1010 29.83 839 24.78 0.3 32.6 97 -0.1 31.9
04:05 1010 29.83 839 24.78 0.3 32.6 97 -0 32
04:10 1010 29.83 839 24.78 0.5 32.8 97 0.1 32.2
04:15 1010 29.83 839 24.78 0.4 32.8 97 0.1 32.1
04:20 1010 29.83 839 24.78 0.3 32.5 97 -0.2 31.7
04:25 1010 29.83 839 24.78 0.1 32.3 97 -0.2 31.6
04:30 1010 29.83 839 24.78 0.2 32.4 97 -0.1 31.7
04:35 1010 29.83 839 24.78 0.2 32.4 98 -0.1 31.7
04:40 1010 29.83 839 24.78 0.2 32.4 97 -0.1 31.8
04:45 1010 29.83 839 24.78 0.2 32.3 97 -0.2 31.6
04:50 1010 29.83 839 24.78 0.1 32.2 98 -0.2 31.6
04:55 1010 29.83 839 24.78 0.2 32.4 97 -0.2 31.7
05:00 1010 29.83 839 24.78 0.2 32.3 97 -0.2 31.7
05:05 1010 29.83 839 24.78 0.1 32.2 97 -0.3 31.5
05:10 1010 29.83 839 24.78 0.2 32.3 97 -0.2 31.6
05:15 1009 29.8 839 24.78 0.1 32.1 97 -0.3 31.4
05:20 1009 29.8 839 24.78 0 32 97 -0.4 31.4
05:25 1009 29.8 839 24.78 0 32 98 -0.3 31.4
05:30 1009 29.8 839 24.78 0 32.1 97 -0.3 31.4
05:35 1010 29.83 839 24.78 -0.1 31.8 97 -0.5 31.1
05:40 1010 29.83 839 24.78 -0.3 31.5 98 -0.6 30.9
05:45 1010 29.83 839 24.78 -0.3 31.4 98 -0.7 30.8
05:50 1009 29.8 839 24.78 -0.4 31.3 98 -0.7 30.8
05:55 1010 29.83 839 24.78 -0.4 31.2 98 -0.7 30.7
06:00 1010 29.83 839 24.78 -0.5 31.1 98 -0.8 30.6
06:05 1010 29.83 839 24.78 -0.6 31 98 -0.8 30.5
06:10 1010 29.83 839 24.78 -0.6 30.9 98 -0.9 30.5
06:15 1010 29.83 839 24.78 -0.7 30.8 98 -1 30.3
06:20 1010 29.83 839 24.78 -0.8 30.5 98 -1.1 30.1
06:25 1010 29.83 839 24.78 -1 30.3 98 -1.2 29.8
06:30 1010 29.83 839 24.78 -1 30.2 98 -1.3 29.7
06:35 1010 29.83 839 24.78 -1.2 29.9 98 -1.4 29.4
06:40 1010 29.83 839 24.78 -1.2 29.8 98 -1.5 29.3
06:45 1010 29.83 839 24.78 -1.3 29.7 98 -1.5 29.2
06:50 1010 29.83 839 24.78 -1.3 29.6 99 -1.6 29.2
06:55 1010 29.83 839 24.78 -1.3 29.6 99 -1.5 29.2
07:00 1010 29.83 839 24.78 -1.3 29.6 99 -1.5 29.3
07:05 1010 29.83 839 24.78 -1.3 29.6 99 -1.6 29.2
07:10 1010 29.83 839 24.78 -1.5 29.3 99 -1.7 28.9
07:15 1010 29.83 840 24.81 -1.6 29.1 99 -1.8 28.7
07:20 1010 29.83 840 24.81 -1.7 29 99 -1.9 28.6
07:25 1011 29.85 840 24.81 -1.7 28.9 99 -1.9 28.6
07:30 1011 29.85 840 24.81 -1.8 28.8 99 -2 28.5
07:35 1011 29.85 840 24.81 -1.8 28.8 99 -1.9 28.5
07:40 1011 29.85 840 24.81 -1.7 28.9 99 -1.9 28.5
07:45 1011 29.85 840 24.81 -1.8 28.8 99 -1.9 28.6
07:50 1011 29.85 840 24.81 -1.7 29 99 -1.9 28.7
07:55 1011 29.85 840 24.81 -1.6 29.1 99 -1.8 28.7
08:00 1011 29.85 840 24.81 -1.6 29.1 99 -1.8 28.8
08:05 1011 29.85 840 24.81 -1.5 29.3 99 -1.7 29
08:10 1011 29.85 840 24.81 -1.4 29.5 99 -1.5 29.2
08:15 1011 29.85 840 24.81 -1.3 29.7 99 -1.5 29.4
08:20 1011 29.85 840 24.81 -1.2 29.9 99 -1.4 29.6
08:25 1011 29.85 840 24.81 -1 30.1 99 -1.2 29.9
08:30 1011 29.85 840 24.81 -1.1 30.1 99 -1.3 29.7
08:35 1011 29.85 840 24.81 -1.1 30 99 -1.3 29.6
08:40 1011 29.85 841 24.83 -1.2 29.9 98 -1.4 29.5
08:45 1011 29.85 840 24.81 -1.3 29.7 98 -1.5 29.3
08:50 1011 29.85 840 24.81 -1.4 29.5 99 -1.6 29.2
08:55 1011 29.85 841 24.83 -1.5 29.4 98 -1.7 28.9
09:00 1011 29.85 841 24.83 -1.6 29.1 98 -1.9 28.6
09:05 1012 29.88 841 24.83 -1.6 29.1 98 -1.9 28.6
09:10 1012 29.88 841 24.83 -1.6 29.1 98 -1.8 28.7
09:15 1012 29.88 841 24.83 -1.5 29.2 98 -1.8 28.8
09:20 1012 29.88 841 24.83 -1.5 29.3 98 -1.7 28.9
09:25 1012 29.88 841 24.83 -1.4 29.5 98 -1.6 29
09:30 1012 29.88 841 24.83 -1.4 29.5 98 -1.7 29
09:35 1012 29.88 841 24.83 -1.3 29.6 98 -1.7 29
09:40 1012 29.88 841 24.83 -1.4 29.6 98 -1.7 29
09:45 1012 29.88 841 24.83 -1.4 29.5 98 -1.7 28.9
09:50 1012 29.88 841 24.83 -1.5 29.4 97 -1.9 28.6
09:55 1012 29.88 841 24.83 -1.6 29.2 97 -1.9 28.5
10:00 1012 29.88 841 24.83 -1.5 29.3 97 -1.9 28.6
10:05 1012 29.88 841 24.83 -1.5 29.4 97 -1.9 28.6
10:10 1012 29.88 841 24.83 -1.5 29.3 97 -1.9 28.5
10:15 1012 29.88 842 24.86 -1.5 29.3 97 -1.9 28.6
10:20 1013 29.91 842 24.86 -1.4 29.5 97 -1.9 28.7
10:25 1013 29.91 842 24.86 -1.3 29.7 97 -1.8 28.8
10:30 1013 29.91 842 24.86 -1.2 29.8 96 -1.7 28.9
10:35 1013 29.91 842 24.86 -1.1 29.9 96 -1.7 29
10:40 1013 29.91 842 24.86 -1.1 29.9 96 -1.7 28.9
10:45 1013 29.91 843 24.89 -1.3 29.7 95 -1.9 28.5
10:50 1013 29.91 843 24.89 -1.5 29.2 95 -2.2 28.1
10:55 1014 29.94 843 24.89 -1.8 28.8 95 -2.5 27.5
11:00 1014 29.94 843 24.89 -1.9 28.6 96 -2.5 27.5
11:05 1014 29.94 843 24.89 -1.9 28.7 95 -2.6 27.3
11:10 1014 29.94 843 24.89 -2.2 28 95 -2.9 26.8
11:15 1014 29.94 843 24.89 -2.3 27.8 96 -2.8 26.9
11:20 1014 29.94 843 24.89 -2.2 28 96 -2.7 27.1
11:25 1014 29.94 843 24.89 -2.2 28.1 96 -2.7 27.1
11:30 1014 29.94 843 24.89 -1.9 28.5 97 -2.4 27.6
11:35 1014 29.94 843 24.89 -1.7 28.9 95 -2.5 27.6
11:40 1014 29.94 843 24.89 -1.9 28.5 94 -2.7 27.1
11:45 1014 29.94 843 24.89 -2.1 28.2 95 -2.9 26.8
11:50 1014 29.94 844 24.92 -2 28.4 94 -2.8 26.9
11:55 1014 29.94 844 24.92 -1.9 28.6 94 -2.7 27.1
12:00 1014 29.94 844 24.92 -1.7 29 92 -2.8 27
12:05 1014 29.94 844 24.92 -1.9 28.7 94 -2.7 27.1
12:10 1014 29.94 844 24.92 -1.9 28.5 92 -3.1 26.4
12:15 1015 29.97 844 24.92 -2.3 27.8 93 -3.3 26.1
12:20 1015 29.97 844 24.92 -2.1 28.2 91 -3.4 25.9
12:25 1015 29.97 844 24.92 -2 28.4 92 -3.2 26.2
12:30 1015 29.97 844 24.92 -1.8 28.8 90 -3.2 26.2
12:35 1015 29.97 844 24.92 -1.7 28.9 90 -3.1 26.5
12:40 1015 29.97 844 24.92 -1.3 29.7 89 -2.8 27
12:45 1015 29.97 844 24.92 -1.1 29.9 89 -2.7 27.1
12:50 1015 29.97 844 24.92 -1.1 30.1 88 -2.8 27
12:55 1015 29.97 844 24.92 -1.3 29.7 88 -3 26.7
13:00 1015 29.97 844 24.92 -1.3 29.7 91 -2.6 27.3
13:05 1015 29.97 844 24.92 -0.6 30.9 88 -2.4 27.7
13:10 1015 29.97 844 24.92 0.2 32.4 79 -3 26.7
13:15 1015 29.97 844 24.92 0.6 33 84 -1.9 28.6
13:20 1015 29.97 844 24.92 0.9 33.6 78 -2.5 27.4
13:25 1015 29.97 844 24.92 1.2 34.1 71 -3.5 25.7
13:30 1015 29.97 844 24.92 0.3 32.5 75 -3.7 25.4
13:35 1015 29.97 844 24.92 -0.5 31.2 79 -3.7 25.4
13:40 1015 29.97 844 24.92 -0.1 31.8 75 -4 24.8
13:45 1015 29.97 844 24.92 0.1 32.2 71 -4.6 23.7
13:50 1015 29.97 844 24.92 -0.2 31.7 68 -5.3 22.4
13:55 1015 29.97 844 24.92 -0.5 31.1 70 -5.4 22.3
14:00 1015 29.97 844 24.92 -0.6 30.9 67 -6 21.1
14:05 1015 29.97 844 24.92 -0.7 30.7 71 -5.4 22.2
14:10 1015 29.97 844 24.92 -0.4 31.3 65 -6.1 21.1
14:15 1015 29.97 844 24.92 -0.3 31.4 65 -6.1 21
14:20 1015 29.97 844 24.92 0.4 32.7 60 -6.4 20.4
14:25 1015 29.97 844 24.92 0.9 33.5 60 -6 21.2
14:30 1015 29.97 844 24.92 1.8 35.3 57 -5.7 21.7
14:35 1015 29.97 844 24.92 1.8 35.2 56 -6.1 21
14:40 1015 29.97 845 24.95 1.6 34.9 53 -7 19.4
14:45 1015 29.97 845 24.95 1.6 34.9 55 -6.4 20.4
14:50 1015 29.97 845 24.95 1.1 33.9 56 -6.9 19.6
14:55 1015 29.97 845 24.95 1.9 35.5 46 -8.4 17
15:00 1015 29.97 845 24.95 3.1 37.6 47 -7 19.4
15:05 1015 29.97 845 24.95 3.6 38.4 45 -7.2 19
15:10 1016 30 845 24.95 3.4 38.2 47 -6.8 19.8
15:15 1016 30 845 24.95 3.1 37.7 46 -7.3 18.9
15:20 1016 30 845 24.95 3 37.4 48 -7 19.4
15:25 1016 30 845 24.95 3.1 37.6 42 -8.5 16.7
15:30 1016 30 845 24.95 3.3 37.9 44 -7.8 17.9
15:35 1016 30 845 24.95 3.6 38.4 45 -7.4 18.8
15:40 1016 30 845 24.95 4.3 39.8 37 -9 15.8
15:45 1016 30 845 24.95 4.5 40 44 -6.8 19.7
15:50 1016 30 845 24.95 4.6 40.4 38 -8.6 16.5
15:55 1016 30 845 24.95 4.5 40.1 38 -8.6 16.6
16:00 1016 30 845 24.95 4.2 39.6 38 -8.8 16.2
16:05 1016 30 845 24.95 3.5 38.3 37 -10 14
16:10 1016 30 845 24.95 3 37.4 37 -10.2 13.7
16:15 1016 30 845 24.95 2.6 36.6 42 -9.2 15.4
16:20 1016 30 845 24.95 3.1 37.5 38 -9.8 14.3
16:25 1016 30 845 24.95 3.3 38 38 -9.8 14.4
16:30 1016 30 845 24.95 3.2 37.8 36 -10.6 12.9
16:35 1016 30 845 24.95 2.6 36.7 38 -10.3 13.5
16:40 1016 30 845 24.95 2.5 36.6 38 -10.4 13.2
16:45 1016 30 845 24.95 2.3 36.1 39 -10.2 13.7
16:50 1016 30 845 24.95 2.7 36.8 39 -9.9 14.1
16:55 1016 30 845 24.95 2.8 37.1 37 -10.3 13.4
17:00 1016 30 846 24.98 2.9 37.2 38 -10.1 13.8
17:05 1016 30 846 24.98 3.3 38 37 -10.1 13.9
17:10 1016 30 846 24.98 3.2 37.8 35 -10.8 12.5
17:15 1016 30 846 24.98 2.4 36.3 39 -10.2 13.7
17:20 1017 30.03 846 24.98 2 35.7 37 -11.1 12.1
17:25 1017 30.03 846 24.98 2.5 36.5 37 -10.7 12.7
17:30 1017 30.03 846 24.98 3.8 38.9 34 -10.6 13
17:35 1017 30.03 846 24.98 3.4 38.1 42 -8.4 16.9
17:40 1017 30.03 846 24.98 3.1 37.6 41 -8.9 16
17:45 1017 30.03 846 24.98 4 39.2 37 -9.4 15.1
17:50 1017 30.03 846 24.98 3.5 38.2 45 -7.3 18.8
17:55 1017 30.03 846 24.98 3.1 37.6 46 -7.4 18.7
18:00 1017 30.03 846 24.98 2.9 37.2 47 -7.4 18.6
18:05 1017 30.03 846 24.98 2 35.6 69 -3 26.5
18:10 1017 30.03 846 24.98 -0.2 31.7 76 -3.9 24.9
18:15 1017 30.03 846 24.98 -0.7 30.7 78 -4.1 24.6
18:20 1017 30.03 846 24.98 -0.7 30.8 76 -4.3 24.2
18:25 1017 30.03 846 24.98 -0.6 31 74 -4.6 23.8
18:30 1017 30.03 846 24.98 -0.5 31.1 74 -4.6 23.8
18:35 1017 30.03 846 24.98 -0.2 31.6 71 -5 23.1
18:40 1017 30.03 847 25.01 -0.1 31.9 69 -5 22.9
18:45 1017 30.03 847 25.01 -0 31.9 68 -5.2 22.7
18:50 1018 30.06 847 25.01 0.1 32.2 66 -5.4 22.3
18:55 1018 30.06 847 25.01 0.1 32.1 69 -5 22.9
19:00 1018 30.06 847 25.01 0.6 33.1 67 -4.8 23.3
19:05 1018 30.06 847 25.01 0.9 33.6 68 -4.3 24.3
19:10 1018 30.06 847 25.01 0.6 33.1 75 -3.4 25.9
19:15 1018 30.06 847 25.01 0.2 32.3 79 -3.1 26.4
19:20 1018 30.06 847 25.01 -0.2 31.6 83 -2.8 27
19:25 1018 30.06 847 25.01 -1.3 29.6 90 -2.7 27.1
19:30 1018 30.06 847 25.01 -1.9 28.6 92 -3.1 26.5
19:35 1018 30.06 847 25.01 -2 28.3 94 -3 26.7
19:40 1018 30.06 847 25.01 -2.2 28.1 94 -2.9 26.7
19:45 1018 30.06 847 25.01 -2.2 28.1 95 -2.9 26.8
19:50 1018 30.06 848 25.04 -2 28.4 94 -2.8 26.9
19:55 1018 30.06 848 25.04 -1.9 28.7 93 -2.8 27
20:00 1018 30.06 848 25.04 -1.9 28.5 93 -2.9 26.9
20:05 1018 30.06 848 25.04 -2.1 28.1 94 -3 26.7
20:10 1018 30.06 848 25.04 -2.2 28 94 -3 26.6
20:15 1018 30.06 848 25.04 -2.2 28 94 -3.1 26.4
20:20 1019 30.09 848 25.04 -2.3 27.8 94 -3.2 26.2
20:25 1018 30.06 848 25.04 -2.2 28 94 -3.1 26.4
20:30 1019 30.09 848 25.04 -2.4 27.8 94 -3.2 26.2
20:35 1019 30.09 848 25.04 -2.5 27.6 95 -3.2 26.2
20:40 1019 30.09 848 25.04 -2.5 27.4 95 -3.2 26.3
20:45 1019 30.09 848 25.04 -2.5 27.4 95 -3.3 26.1
20:50 1019 30.09 848 25.04 -2.7 27.1 95 -3.5 25.7
20:55 1019 30.09 848 25.04 -2.8 26.9 95 -3.5 25.7
21:00 1019 30.09 848 25.04 -3 26.6 96 -3.6 25.6
21:05 1019 30.09 848 25.04 -3.1 26.5 96 -3.6 25.5
21:10 1019 30.09 848 25.04 -3.1 26.4 96 -3.7 25.4
21:15 1019 30.09 848 25.04 -3.2 26.3 96 -3.8 25.2
21:20 1019 30.09 848 25.04 -3.3 26.1 96 -3.9 25
21:25 1019 30.09 848 25.04 -3.4 26 95 -4.1 24.7
21:30 1019 30.09 848 25.04 -3.4 25.9 93 -4.4 24.1
21:35 1019 30.09 848 25.04 -3.3 26 92 -4.5 23.8
21:40 1019 30.09 848 25.04 -3.5 25.7 92 -4.6 23.7
21:45 1019 30.09 848 25.04 -3.5 25.6 92 -4.7 23.5
21:50 1019 30.09 849 25.07 -3.2 26.2 91 -4.5 23.8
21:55 1019 30.09 849 25.07 -3.3 26.1 90 -4.8 23.4
22:00 1019 30.09 849 25.07 -3.6 25.5 92 -4.8 23.4
22:05 1019 30.09 849 25.07 -3.8 25.2 92 -4.9 23.3
22:10 1019 30.09 849 25.07 -3.9 25 93 -4.9 23.2
22:15 1020 30.12 849 25.07 -3.9 24.9 92 -5.1 22.9
22:20 1020 30.12 849 25.07 -4.1 24.7 92 -5.2 22.6
22:25 1020 30.12 849 25.07 -4 24.8 90 -5.4 22.2
22:30 1020 30.12 849 25.07 -3.8 25.2 89 -5.4 22.3
22:35 1020 30.12 849 25.07 -3.9 25 89 -5.5 22
22:40 1020 30.12 849 25.07 -4.1 24.6 89 -5.7 21.8
22:45 1020 30.12 849 25.07 -4.1 24.7 88 -5.8 21.6
22:50 1020 30.12 849 25.07 -4.2 24.5 90 -5.6 21.8
22:55 1020 30.12 849 25.07 -4.1 24.6 89 -5.7 21.7
23:00 1020 30.12 849 25.07 -4.1 24.6 89 -5.7 21.7
23:05 1020 30.12 849 25.07 -4.2 24.4 89 -5.8 21.6
23:10 1020 30.12 849 25.07 -4.3 24.3 89 -5.8 21.6
23:15 1020 30.12 849 25.07 -4.3 24.2 89 -5.9 21.4
23:20 1020 30.12 849 25.07 -4.4 24.2 89 -5.9 21.4
23:25 1020 30.12 849 25.07 -4.3 24.2 89 -6 21.3
23:30 1020 30.12 849 25.07 -4.3 24.2 89 -5.9 21.3
23:35 1020 30.12 849 25.07 -4.3 24.2 89 -5.9 21.4
23:40 1020 30.12 849 25.07 -4.4 24.1 89 -5.9 21.3
23:45 1020 30.12 849 25.07 -4.4 24 89 -5.9 21.4
23:50 1020 30.12 849 25.07 -4.5 24 90 -5.9 21.3
23:55 1020 30.12 849 25.07 -4.4 24 90 -5.9 21.4
24:00 1020 30.12 849 25.07 -4.4 24.1 90 -5.9 21.4